Terminal Aerodrome Forecast
Issued by NWS

Home | Current Version | Previous Version | Text Only | Print | Product List | Glossary On
Versions: 1 2 3 4 5 6 7 8 9 10 11 12 13 14 15 16 17 18 19 20
419
FTAK31 PAJN 022323
TAFAKT
TAF
PAKT 022323Z 0300/0324 14008KT P6SM -RA BKN030 OVC050
     FM030400 31007KT P6SM -SHRA BKN035 OVC080
     FM031800 21005KT P6SM VCSH BKN040 OVC080
      AMD LTD TO CLD VIS AND WIND 0306/0315=

USA.gov is the U.S. government's official web portal to all federal, state and local government web resources and services.